Pagrindinis puslapis
METAR-TAF:

METAR-TAF

Oro uostai :

Kuveitas, Kuveitas

platuma: 29-13N, ilguma: 047-59E, Aukštis: 55 m

Dabartinis oras

Ataskaita buvo paskelbta 15 minutes, ne 04:00 UTC
Vėjas 3 kt iš Pietryčių
Temperatūra 28°C
Drėgmė 22%
Slėgis 1011 hPa
Matomumas 10 km arba daugiau
nėra debesų žemiau 1500 m ir nėra kamuolinių lietaus debesų

METAR: OKBK 070400Z 14003KT CAVOK 28/04 Q1011 NOSIG

Laikas: 07:15 (04:15 UTC)

Prognozė

Ataskaita buvo paskelbta 5 valandos ir 30 minutes, ne 22:45 UTC
Prognozė galioja nuo 07 metu 00 UTC su 08 metu 06 UTC
Vėjas 10 kt iš Pietų/Pietryčių su gūsio iki 22 kt
Matomumas: 7000 m
Išsisklaidę debesys ne aukštis 4000 ft
Su prošvaistėmis ne aukštis 8000 ft
Laikinai
nuo 07 metu 08 UTC su 07 metu 18 UTC
Matomumas: 3000 m
Mažai debesys ne aukštis 2500 ft, Liūtiniai kamuoliniai debesys.
perkūnija, lietus, Dulkes pustymas

TAF: OKBK 062245Z 0700/0806 16010G22KT 7000 SCT040 BKN080 TEMPO 0708/0718 3000 TSRA BLDU FEW025CB

Orai ataskaitas ir orų prognozės (METAR, TAF).

turimą stotys yra geltonos ir raudonos taškus žemėlapyje.

Perkelti pele per norėdami pamatyti stoties vardą.

Tada spustelėkite, norėdami matyti oro stebėjimo ir prognozės.

Norėdami pakeisti žemėlapį: spustelėkite ant žalios mygtukų su juodo kryžiaus žemyn,; žalią mygtuką su brūkšneliu, jei norite nutolinti; arba žalių rodyklių gretimoms žemėlapius.


METAR-TAF: